sensor_id;sensor_type;location;lat;lon;timestamp;pressure;altitude;pressure_sealevel;temperature;humidity
69257;BME280;56376;53.356;-1.748;2023-03-04T00:01:00;101093.13;;;4.41;94.38
69257;BME280;56376;53.356;-1.748;2023-03-04T00:03:25;101090.53;;;4.41;94.12
69257;BME280;56376;53.356;-1.748;2023-03-04T00:05:51;101087.09;;;4.39;94.22
69257;BME280;56376;53.356;-1.748;2023-03-04T00:08:16;101096.53;;;4.38;94.63
69257;BME280;56376;53.356;-1.748;2023-03-04T00:10:42;101093.09;;;4.38;94.85
69257;BME280;56376;53.356;-1.748;2023-03-04T00:13:07;101085.31;;;4.38;94.53
69257;BME280;56376;53.356;-1.748;2023-03-04T00:15:33;101088.78;;;4.37;94.24
69257;BME280;56376;53.356;-1.748;2023-03-04T00:17:58;101087.06;;;4.37;94.18
69257;BME280;56376;53.356;-1.748;2023-03-04T00:20:24;101093.94;;;4.38;93.59
69257;BME280;56376;53.356;-1.748;2023-03-04T00:22:49;101095.69;;;4.36;92.97
69257;BME280;56376;53.356;-1.748;2023-03-04T00:25:14;101101.72;;;4.37;92.67
69257;BME280;56376;53.356;-1.748;2023-03-04T00:27:40;101089.59;;;4.34;92.84
69257;BME280;56376;53.356;-1.748;2023-03-04T00:30:06;101092.94;;;4.27;93.12
69257;BME280;56376;53.356;-1.748;2023-03-04T00:32:32;101089.50;;;4.26;93.69
69257;BME280;56376;53.356;-1.748;2023-03-04T00:34:57;101092.06;;;4.25;94.55
69257;BME280;56376;53.356;-1.748;2023-03-04T00:37:23;101087.78;;;4.27;94.59
69257;BME280;56376;53.356;-1.748;2023-03-04T00:39:48;101088.66;;;4.29;94.92
69257;BME280;56376;53.356;-1.748;2023-03-04T00:42:13;101092.09;;;4.28;94.52
69257;BME280;56376;53.356;-1.748;2023-03-04T00:44:39;101091.25;;;4.29;94.95
69257;BME280;56376;53.356;-1.748;2023-03-04T00:47:04;101093.84;;;4.29;94.14
69257;BME280;56376;53.356;-1.748;2023-03-04T00:49:30;101095.56;;;4.28;94.44
69257;BME280;56376;53.356;-1.748;2023-03-04T00:51:55;101097.22;;;4.25;94.62
69257;BME280;56376;53.356;-1.748;2023-03-04T00:54:21;101096.31;;;4.23;94.20
69257;BME280;56376;53.356;-1.748;2023-03-04T00:56:49;101097.22;;;4.25;94.13
69257;BME280;56376;53.356;-1.748;2023-03-04T00:59:14;101092.91;;;4.24;94.30
69257;BME280;56376;53.356;-1.748;2023-03-04T01:01:39;101081.66;;;4.23;94.80
69257;BME280;56376;53.356;-1.748;2023-03-04T01:04:05;101083.47;;;4.26;94.23
69257;BME280;56376;53.356;-1.748;2023-03-04T01:06:30;101084.31;;;4.26;94.36
69257;BME280;56376;53.356;-1.748;2023-03-04T01:08:55;101083.47;;;4.26;94.52
69257;BME280;56376;53.356;-1.748;2023-03-04T01:11:21;101082.56;;;4.25;95.01
69257;BME280;56376;53.356;-1.748;2023-03-04T01:13:46;101082.56;;;4.25;95.26
69257;BME280;56376;53.356;-1.748;2023-03-04T01:16:12;101083.41;;;4.23;95.26
69257;BME280;56376;53.356;-1.748;2023-03-04T01:18:38;101085.97;;;4.23;95.38
69257;BME280;56376;53.356;-1.748;2023-03-04T01:21:04;101085.16;;;4.24;95.56
69257;BME280;56376;53.356;-1.748;2023-03-04T01:23:29;101072.22;;;4.24;95.87
69257;BME280;56376;53.356;-1.748;2023-03-04T01:25:54;101079.09;;;4.23;95.69
69257;BME280;56376;53.356;-1.748;2023-03-04T01:28:20;101077.34;;;4.22;95.47
69257;BME280;56376;53.356;-1.748;2023-03-04T01:30:45;101080.84;;;4.24;95.79
69257;BME280;56376;53.356;-1.748;2023-03-04T01:33:10;101073.88;;;4.20;95.92
69257;BME280;56376;53.356;-1.748;2023-03-04T01:35:36;101076.47;;;4.20;94.99
69257;BME280;56376;53.356;-1.748;2023-03-04T01:38:01;101064.28;;;4.11;95.04
69257;BME280;56376;53.356;-1.748;2023-03-04T01:40:27;101074.63;;;4.13;95.07
69257;BME280;56376;53.356;-1.748;2023-03-04T01:42:52;101060.81;;;4.11;95.19
69257;BME280;56376;53.356;-1.748;2023-03-04T01:45:18;101059.06;;;4.08;95.32
69257;BME280;56376;53.356;-1.748;2023-03-04T01:47:46;101061.66;;;4.10;95.59
69257;BME280;56376;53.356;-1.748;2023-03-04T01:50:30;101060.75;;;4.06;95.22
69257;BME280;56376;53.356;-1.748;2023-03-04T01:52:56;101051.25;;;4.04;94.96
69257;BME280;56376;53.356;-1.748;2023-03-04T01:55:22;101059.84;;;4.04;95.26
69257;BME280;56376;53.356;-1.748;2023-03-04T01:57:49;101050.41;;;4.06;95.00
69257;BME280;56376;53.356;-1.748;2023-03-04T02:00:26;101053.00;;;4.08;95.17
69257;BME280;56376;53.356;-1.748;2023-03-04T02:02:56;101052.13;;;4.07;94.94
69257;BME280;56376;53.356;-1.748;2023-03-04T02:05:22;101057.31;;;4.06;94.46
69257;BME280;56376;53.356;-1.748;2023-03-04T02:07:50;101046.06;;;4.05;94.61
69257;BME280;56376;53.356;-1.748;2023-03-04T02:10:16;101053.00;;;4.06;94.45
69257;BME280;56376;53.356;-1.748;2023-03-04T02:12:43;101052.13;;;4.07;95.25
69257;BME280;56376;53.356;-1.748;2023-03-04T02:15:09;101044.38;;;4.06;95.14
69257;BME280;56376;53.356;-1.748;2023-03-04T02:17:35;101049.56;;;4.06;95.30
69257;BME280;56376;53.356;-1.748;2023-03-04T02:25:32;101037.41;;;4.02;94.58
69257;BME280;56376;53.356;-1.748;2023-03-04T02:27:59;101044.19;;;3.95;93.73
69257;BME280;56376;53.356;-1.748;2023-03-04T02:30:24;101045.03;;;3.93;94.13
69257;BME280;56376;53.356;-1.748;2023-03-04T02:32:51;101044.19;;;3.94;94.39
69257;BME280;56376;53.356;-1.748;2023-03-04T02:35:18;101049.38;;;3.94;94.38
69257;BME280;56376;53.356;-1.748;2023-03-04T02:37:43;101042.44;;;3.93;94.63
69257;BME280;56376;53.356;-1.748;2023-03-04T02:40:29;101044.16;;;3.92;94.17
69257;BME280;56376;53.356;-1.748;2023-03-04T02:42:58;101043.34;;;3.93;93.78
69257;BME280;56376;53.356;-1.748;2023-03-04T02:45:47;101044.97;;;3.89;93.46
69257;BME280;56376;53.356;-1.748;2023-03-04T02:48:17;101038.94;;;3.90;93.18
69257;BME280;56376;53.356;-1.748;2023-03-04T02:50:46;101037.19;;;3.86;93.34
69257;BME280;56376;53.356;-1.748;2023-03-04T02:53:12;101038.00;;;3.85;93.18
69257;BME280;56376;53.356;-1.748;2023-03-04T02:55:39;101032.81;;;3.81;93.68
69257;BME280;56376;53.356;-1.748;2023-03-04T02:58:06;101028.34;;;3.72;93.82
69257;BME280;56376;53.356;-1.748;2023-03-04T03:00:31;101027.47;;;3.72;94.24
69257;BME280;56376;53.356;-1.748;2023-03-04T03:02:57;101036.09;;;3.72;94.68
69257;BME280;56376;53.356;-1.748;2023-03-04T03:05:25;101030.09;;;3.75;94.73
69257;BME280;56376;53.356;-1.748;2023-03-04T03:07:51;101029.28;;;3.76;95.02
69257;BME280;56376;53.356;-1.748;2023-03-04T03:10:16;101031.03;;;3.80;94.92
69257;BME280;56376;53.356;-1.748;2023-03-04T03:12:42;101024.97;;;3.78;94.73
69257;BME280;56376;53.356;-1.748;2023-03-04T03:15:08;101020.69;;;3.78;94.85
69257;BME280;56376;53.356;-1.748;2023-03-04T03:17:33;101024.16;;;3.80;94.91
69257;BME280;56376;53.356;-1.748;2023-03-04T03:19:58;101014.63;;;3.76;94.56
69257;BME280;56376;53.356;-1.748;2023-03-04T03:22:24;101022.44;;;3.79;94.77
69257;BME280;56376;53.356;-1.748;2023-03-04T03:24:49;101012.91;;;3.77;95.09
69257;BME280;56376;53.356;-1.748;2023-03-04T03:27:15;101014.63;;;3.78;94.77
69257;BME280;56376;53.356;-1.748;2023-03-04T03:29:40;101011.19;;;3.76;94.22
69257;BME280;56376;53.356;-1.748;2023-03-04T03:32:05;101004.22;;;3.72;93.63
69257;BME280;56376;53.356;-1.748;2023-03-04T03:34:31;101004.16;;;3.67;93.88
69257;BME280;56376;53.356;-1.748;2023-03-04T03:36:56;101006.72;;;3.67;93.66
69257;BME280;56376;53.356;-1.748;2023-03-04T03:39:22;101011.94;;;3.68;93.55
69257;BME280;56376;53.356;-1.748;2023-03-04T03:41:47;101005.91;;;3.68;93.67
69257;BME280;56376;53.356;-1.748;2023-03-04T03:44:13;100998.91;;;3.62;93.16
69257;BME280;56376;53.356;-1.748;2023-03-04T03:46:38;101011.81;;;3.61;93.80
69257;BME280;56376;53.356;-1.748;2023-03-04T03:49:03;101010.91;;;3.59;93.71
69257;BME280;56376;53.356;-1.748;2023-03-04T03:51:29;101010.00;;;3.57;93.85
69257;BME280;56376;53.356;-1.748;2023-03-04T03:53:54;101005.72;;;3.56;94.21
69257;BME280;56376;53.356;-1.748;2023-03-04T03:56:19;101009.22;;;3.61;94.13
69257;BME280;56376;53.356;-1.748;2023-03-04T03:58:45;101010.09;;;3.61;94.32
69257;BME280;56376;53.356;-1.748;2023-03-04T04:01:10;101008.38;;;3.60;94.00
69257;BME280;56376;53.356;-1.748;2023-03-04T04:03:36;101009.28;;;3.64;94.10
69257;BME280;56376;53.356;-1.748;2023-03-04T04:06:01;101005.81;;;3.63;93.94
69257;BME280;56376;53.356;-1.748;2023-03-04T04:08:27;101012.72;;;3.63;94.39
69257;BME280;56376;53.356;-1.748;2023-03-04T04:10:52;101010.13;;;3.63;94.05
69257;BME280;56376;53.356;-1.748;2023-03-04T04:13:17;101010.13;;;3.63;94.14
69257;BME280;56376;53.356;-1.748;2023-03-04T04:15:43;101004.94;;;3.61;94.14
69257;BME280;56376;53.356;-1.748;2023-03-04T04:18:08;101000.63;;;3.62;93.82
69257;BME280;56376;53.356;-1.748;2023-03-04T04:20:34;101009.22;;;3.61;93.85
69257;BME280;56376;53.356;-1.748;2023-03-04T04:23:00;101014.38;;;3.59;93.64
69257;BME280;56376;53.356;-1.748;2023-03-04T04:25:26;101008.28;;;3.57;94.02
69257;BME280;56376;53.356;-1.748;2023-03-04T04:27:51;101009.22;;;3.61;94.16
69257;BME280;56376;53.356;-1.748;2023-03-04T04:30:17;101017.78;;;3.57;93.92
69257;BME280;56376;53.356;-1.748;2023-03-04T04:32:43;101011.66;;;3.52;93.43
69257;BME280;56376;53.356;-1.748;2023-03-04T04:35:08;101009.94;;;3.51;93.21
69257;BME280;56376;53.356;-1.748;2023-03-04T04:37:34;101011.59;;;3.47;93.55
69257;BME280;56376;53.356;-1.748;2023-03-04T04:39:59;101015.03;;;3.47;94.02
69257;BME280;56376;53.356;-1.748;2023-03-04T04:42:24;101019.31;;;3.45;93.72
69257;BME280;56376;53.356;-1.748;2023-03-04T04:44:50;101014.16;;;3.45;93.51
69257;BME280;56376;53.356;-1.748;2023-03-04T04:47:16;101023.63;;;3.46;93.63
69257;BME280;56376;53.356;-1.748;2023-03-04T04:49:42;101021.06;;;3.46;93.59
69257;BME280;56376;53.356;-1.748;2023-03-04T04:52:07;101018.44;;;3.45;93.98
69257;BME280;56376;53.356;-1.748;2023-03-04T04:54:33;101021.00;;;3.43;93.85
69257;BME280;56376;53.356;-1.748;2023-03-04T04:56:58;101016.69;;;3.44;94.10
69257;BME280;56376;53.356;-1.748;2023-03-04T04:59:23;101009.81;;;3.44;93.92
69257;BME280;56376;53.356;-1.748;2023-03-04T05:01:49;101018.41;;;3.43;93.51
69257;BME280;56376;53.356;-1.748;2023-03-04T05:04:14;101012.34;;;3.41;93.59
69257;BME280;56376;53.356;-1.748;2023-03-04T05:06:40;101009.78;;;3.41;93.40
69257;BME280;56376;53.356;-1.748;2023-03-04T05:09:05;101013.22;;;3.40;93.32
69257;BME280;56376;53.356;-1.748;2023-03-04T05:11:32;101010.56;;;3.37;93.25
69257;BME280;56376;53.356;-1.748;2023-03-04T05:13:57;101008.00;;;3.39;93.38
69257;BME280;56376;53.356;-1.748;2023-03-04T05:16:23;101012.31;;;3.40;93.50
69257;BME280;56376;53.356;-1.748;2023-03-04T05:18:48;101006.28;;;3.39;93.11
69257;BME280;56376;53.356;-1.748;2023-03-04T05:21:14;101008.06;;;3.40;92.94
69257;BME280;56376;53.356;-1.748;2023-03-04T05:23:41;101011.47;;;3.39;93.16
69257;BME280;56376;53.356;-1.748;2023-03-04T05:26:08;101006.28;;;3.38;92.71
69257;BME280;56376;53.356;-1.748;2023-03-04T05:28:34;101009.69;;;3.35;92.96
69257;BME280;56376;53.356;-1.748;2023-03-04T05:31:00;101007.94;;;3.34;92.24
69257;BME280;56376;53.356;-1.748;2023-03-04T05:33:26;101014.72;;;3.29;92.52
69257;BME280;56376;53.356;-1.748;2023-03-04T05:35:51;101016.41;;;3.27;92.68
69257;BME280;56376;53.356;-1.748;2023-03-04T05:38:19;101031.03;;;3.27;93.13
69257;BME280;56376;53.356;-1.748;2023-03-04T05:40:45;101024.06;;;3.21;92.71
69257;BME280;56376;53.356;-1.748;2023-03-04T05:43:11;101018.91;;;3.21;92.80
69257;BME280;56376;53.356;-1.748;2023-03-04T05:45:37;101029.25;;;3.22;92.87
69257;BME280;56376;53.356;-1.748;2023-03-04T05:48:04;101025.78;;;3.22;93.62
69257;BME280;56376;53.356;-1.748;2023-03-04T05:50:30;101030.09;;;3.21;93.58
69257;BME280;56376;53.356;-1.748;2023-03-04T05:52:56;101035.25;;;3.21;93.53
69257;BME280;56376;53.356;-1.748;2023-03-04T05:55:21;101032.72;;;3.23;93.44
69257;BME280;56376;53.356;-1.748;2023-03-04T05:57:47;101037.88;;;3.23;92.40
69257;BME280;56376;53.356;-1.748;2023-03-04T06:00:13;101046.56;;;3.28;92.40
69257;BME280;56376;53.356;-1.748;2023-03-04T06:02:40;101038.66;;;3.19;92.62
69257;BME280;56376;53.356;-1.748;2023-03-04T06:05:06;101036.03;;;3.16;92.85
69257;BME280;56376;53.356;-1.748;2023-03-04T06:07:32;101048.16;;;3.21;92.98
69257;BME280;56376;53.356;-1.748;2023-03-04T06:09:58;101042.97;;;3.20;89.88
69257;BME280;56376;53.356;-1.748;2023-03-04T06:12:23;101049.63;;;3.07;91.32
69257;BME280;56376;53.356;-1.748;2023-03-04T06:14:48;101054.78;;;3.06;92.06
69257;BME280;56376;53.356;-1.748;2023-03-04T06:17:14;101039.97;;;2.97;92.66
69257;BME280;56376;53.356;-1.748;2023-03-04T06:19:39;101046.84;;;2.96;93.33
69257;BME280;56376;53.356;-1.748;2023-03-04T06:22:07;101044.25;;;2.95;92.99
69257;BME280;56376;53.356;-1.748;2023-03-04T06:24:33;101035.59;;;2.93;93.23
69257;BME280;56376;53.356;-1.748;2023-03-04T06:26:58;101036.44;;;2.92;94.03
69257;BME280;56376;53.356;-1.748;2023-03-04T06:29:24;101030.44;;;2.94;94.33
69257;BME280;56376;53.356;-1.748;2023-03-04T06:31:49;101024.47;;;2.95;93.87
69257;BME280;56376;53.356;-1.748;2023-03-04T06:34:15;101034.81;;;2.97;93.14
69257;BME280;56376;53.356;-1.748;2023-03-04T06:36:40;101034.00;;;2.99;92.65
69257;BME280;56376;53.356;-1.748;2023-03-04T06:39:06;101040.06;;;3.00;92.63
69257;BME280;56376;53.356;-1.748;2023-03-04T06:41:32;101043.50;;;3.02;92.54
69257;BME280;56376;53.356;-1.748;2023-03-04T06:43:58;101035.78;;;3.03;92.65
69257;BME280;56376;53.356;-1.748;2023-03-04T06:46:24;101037.56;;;3.06;92.68
69257;BME280;56376;53.356;-1.748;2023-03-04T06:48:49;101033.31;;;3.08;92.36
69257;BME280;56376;53.356;-1.748;2023-03-04T06:51:15;101037.66;;;3.11;92.38
69257;BME280;56376;53.356;-1.748;2023-03-04T06:53:41;101039.38;;;3.12;93.39
69257;BME280;56376;53.356;-1.748;2023-03-04T06:56:08;101043.69;;;3.11;93.45
69257;BME280;56376;53.356;-1.748;2023-03-04T06:58:34;101044.53;;;3.12;94.07
69257;BME280;56376;53.356;-1.748;2023-03-04T07:01:21;101042.00;;;3.15;94.03
69257;BME280;56376;53.356;-1.748;2023-03-04T07:03:48;101044.59;;;3.15;93.87
69257;BME280;56376;53.356;-1.748;2023-03-04T07:06:17;101048.06;;;3.15;93.96
69257;BME280;56376;53.356;-1.748;2023-03-04T07:08:43;101044.59;;;3.15;94.40
69257;BME280;56376;53.356;-1.748;2023-03-04T07:11:08;101042.00;;;3.15;94.53
69257;BME280;56376;53.356;-1.748;2023-03-04T07:13:34;101041.19;;;3.16;94.15
69257;BME280;56376;53.356;-1.748;2023-03-04T07:16:04;101048.03;;;3.14;93.72
69257;BME280;56376;53.356;-1.748;2023-03-04T07:18:29;101059.22;;;3.14;93.86
69257;BME280;56376;53.356;-1.748;2023-03-04T07:20:54;101063.53;;;3.14;94.10
69257;BME280;56376;53.356;-1.748;2023-03-04T07:23:20;101061.78;;;3.13;94.76
69257;BME280;56376;53.356;-1.748;2023-03-04T07:25:45;101069.59;;;3.17;94.03
69257;BME280;56376;53.356;-1.748;2023-03-04T07:28:11;101061.84;;;3.17;93.50
69257;BME280;56376;53.356;-1.748;2023-03-04T07:30:36;101064.44;;;3.17;93.31
69257;BME280;56376;53.356;-1.748;2023-03-04T07:33:02;101066.16;;;3.17;92.95
69257;BME280;56376;53.356;-1.748;2023-03-04T07:35:27;101066.16;;;3.17;93.07
69257;BME280;56376;53.356;-1.748;2023-03-04T07:37:53;101059.28;;;3.17;93.19
69257;BME280;56376;53.356;-1.748;2023-03-04T07:40:19;101061.84;;;3.17;93.28
69257;BME280;56376;53.356;-1.748;2023-03-04T07:42:51;101067.97;;;3.21;93.31
69257;BME280;56376;53.356;-1.748;2023-03-04T07:45:17;101061.09;;;3.21;93.61
69257;BME280;56376;53.356;-1.748;2023-03-04T07:47:44;101063.63;;;3.20;93.61
69257;BME280;56376;53.356;-1.748;2023-03-04T07:50:10;101065.38;;;3.21;93.74
69257;BME280;56376;53.356;-1.748;2023-03-04T07:52:44;101072.28;;;3.22;93.95
69257;BME280;56376;53.356;-1.748;2023-03-04T07:55:11;101072.31;;;3.25;94.01
69257;BME280;56376;53.356;-1.748;2023-03-04T07:57:45;101069.75;;;3.25;93.76
69257;BME280;56376;53.356;-1.748;2023-03-04T08:00:12;101062.94;;;3.29;93.96
69257;BME280;56376;53.356;-1.748;2023-03-04T08:02:38;101062.97;;;3.30;93.65
69257;BME280;56376;53.356;-1.748;2023-03-04T08:05:05;101058.69;;;3.32;93.99
69257;BME280;56376;53.356;-1.748;2023-03-04T08:07:30;101059.53;;;3.31;93.72
69257;BME280;56376;53.356;-1.748;2023-03-04T08:09:56;101065.59;;;3.33;93.73
69257;BME280;56376;53.356;-1.748;2023-03-04T08:12:21;101059.56;;;3.33;93.54
69257;BME280;56376;53.356;-1.748;2023-03-04T08:14:49;101052.66;;;3.32;93.01
69257;BME280;56376;53.356;-1.748;2023-03-04T08:17:14;101053.59;;;3.35;92.28
69257;BME280;56376;53.356;-1.748;2023-03-04T08:19:39;101059.56;;;3.33;92.26
69257;BME280;56376;53.356;-1.748;2023-03-04T08:22:05;101057.84;;;3.33;92.82
69257;BME280;56376;53.356;-1.748;2023-03-04T08:24:31;101054.41;;;3.33;92.97
69257;BME280;56376;53.356;-1.748;2023-03-04T08:26:56;101050.09;;;3.33;93.10
69257;BME280;56376;53.356;-1.748;2023-03-04T08:29:23;101054.47;;;3.36;92.77
69257;BME280;56376;53.356;-1.748;2023-03-04T08:31:50;101053.63;;;3.38;92.86
69257;BME280;56376;53.356;-1.748;2023-03-04T08:34:17;101058.81;;;3.38;92.02
69257;BME280;56376;53.356;-1.748;2023-03-04T08:36:42;101055.31;;;3.36;92.00
69257;BME280;56376;53.356;-1.748;2023-03-04T08:39:11;101054.47;;;3.36;92.09
69257;BME280;56376;53.356;-1.748;2023-03-04T08:41:37;101050.19;;;3.39;92.23
69257;BME280;56376;53.356;-1.748;2023-03-04T08:44:02;101055.31;;;3.36;91.83
69257;BME280;56376;53.356;-1.748;2023-03-04T08:46:28;101051.91;;;3.39;92.56
69257;BME280;56376;53.356;-1.748;2023-03-04T08:48:53;101051.97;;;3.40;91.40
69257;BME280;56376;53.356;-1.748;2023-03-04T08:51:19;101045.09;;;3.42;91.22
69257;BME280;56376;53.356;-1.748;2023-03-04T08:53:45;101046.84;;;3.43;90.48
69257;BME280;56376;53.356;-1.748;2023-03-04T08:56:12;101052.81;;;3.41;90.17
69257;BME280;56376;53.356;-1.748;2023-03-04T08:58:37;101043.41;;;3.43;90.64
69257;BME280;56376;53.356;-1.748;2023-03-04T09:01:04;101047.66;;;3.42;89.57
69257;BME280;56376;53.356;-1.748;2023-03-04T09:03:31;101049.34;;;3.39;90.50
69257;BME280;56376;53.356;-1.748;2023-03-04T09:05:57;101058.00;;;3.41;91.05
69257;BME280;56376;53.356;-1.748;2023-03-04T09:08:22;101056.31;;;3.43;91.03
69257;BME280;56376;53.356;-1.748;2023-03-04T09:10:51;101045.19;;;3.49;88.70
69257;BME280;56376;53.356;-1.748;2023-03-04T09:13:17;101052.81;;;3.41;89.11
69257;BME280;56376;53.356;-1.748;2023-03-04T09:15:44;101051.06;;;3.40;90.15
69257;BME280;56376;53.356;-1.748;2023-03-04T09:18:10;101055.41;;;3.42;90.17
69257;BME280;56376;53.356;-1.748;2023-03-04T09:20:35;101059.75;;;3.43;90.71
69257;BME280;56376;53.356;-1.748;2023-03-04T09:23:01;101050.31;;;3.45;90.70
69257;BME280;56376;53.356;-1.748;2023-03-04T09:25:26;101047.69;;;3.44;90.83
69257;BME280;56376;53.356;-1.748;2023-03-04T09:27:52;101056.41;;;3.49;90.85
69257;BME280;56376;53.356;-1.748;2023-03-04T09:30:18;101071.09;;;3.52;90.80
69257;BME280;56376;53.356;-1.748;2023-03-04T09:32:43;101056.44;;;3.52;90.36
69257;BME280;56376;53.356;-1.748;2023-03-04T09:35:08;101058.22;;;3.55;90.30
69257;BME280;56376;53.356;-1.748;2023-03-04T09:37:35;101057.31;;;3.51;88.82
69257;BME280;56376;53.356;-1.748;2023-03-04T09:40:01;101074.53;;;3.51;89.48
69257;BME280;56376;53.356;-1.748;2023-03-04T09:42:37;101056.38;;;3.47;89.20
69257;BME280;56376;53.356;-1.748;2023-03-04T09:45:07;101067.59;;;3.50;89.11
69257;BME280;56376;53.356;-1.748;2023-03-04T09:47:36;101059.88;;;3.51;88.87
69257;BME280;56376;53.356;-1.748;2023-03-04T09:50:07;101054.72;;;3.53;89.34
69257;BME280;56376;53.356;-1.748;2023-03-04T09:53:00;101057.38;;;3.56;88.43
69257;BME280;56376;53.356;-1.748;2023-03-04T10:00:44;101053.03;;;3.53;85.40
69257;BME280;56376;53.356;-1.748;2023-03-04T10:03:16;101052.97;;;3.50;86.14
69257;BME280;56376;53.356;-1.748;2023-03-04T10:05:50;101050.41;;;3.52;86.36
69257;BME280;56376;53.356;-1.748;2023-03-04T10:08:24;101050.47;;;3.55;86.61
69257;BME280;56376;53.356;-1.748;2023-03-04T10:10:53;101051.41;;;3.60;86.98
69257;BME280;56376;53.356;-1.748;2023-03-04T10:16:38;101060.19;;;3.69;87.21
69257;BME280;56376;53.356;-1.748;2023-03-04T10:21:55;101051.53;;;3.67;86.24
69257;BME280;56376;53.356;-1.748;2023-03-04T10:24:25;101048.91;;;3.63;83.94
69257;BME280;56376;53.356;-1.748;2023-03-04T10:26:54;101047.97;;;3.59;84.80
69257;BME280;56376;53.356;-1.748;2023-03-04T10:29:23;101050.53;;;3.59;85.66
69257;BME280;56376;53.356;-1.748;2023-03-04T10:31:49;101049.72;;;3.62;85.38
69257;BME280;56376;53.356;-1.748;2023-03-04T10:34:17;101054.06;;;3.63;85.92
69257;BME280;56376;53.356;-1.748;2023-03-04T10:36:53;101055.84;;;3.67;86.32
69257;BME280;56376;53.356;-1.748;2023-03-04T10:39:25;101048.97;;;3.69;87.05
69257;BME280;56376;53.356;-1.748;2023-03-04T10:42:43;101056.03;;;3.79;84.34
69257;BME280;56376;53.356;-1.748;2023-03-04T10:44:55;101049.97;;;3.77;84.90
69257;BME280;56376;53.356;-1.748;2023-03-04T10:47:26;101044.81;;;3.79;85.94
69257;BME280;56376;53.356;-1.748;2023-03-04T10:49:57;101044.84;;;3.80;85.55
69257;BME280;56376;53.356;-1.748;2023-03-04T10:52:30;101052.66;;;3.85;85.61
69257;BME280;56376;53.356;-1.748;2023-03-04T10:55:05;101043.22;;;3.87;85.86
69257;BME280;56376;53.356;-1.748;2023-03-04T10:57:39;101044.13;;;3.89;85.11
69257;BME280;56376;53.356;-1.748;2023-03-04T11:00:34;101041.63;;;3.95;84.59
69257;BME280;56376;53.356;-1.748;2023-03-04T11:05:51;101031.31;;;3.97;83.93
69257;BME280;56376;53.356;-1.748;2023-03-04T11:08:27;101030.44;;;3.98;84.18
69257;BME280;56376;53.356;-1.748;2023-03-04T11:10:53;101034.72;;;3.94;83.16
69257;BME280;56376;53.356;-1.748;2023-03-04T11:13:21;101033.81;;;3.92;82.10
69257;BME280;56376;53.356;-1.748;2023-03-04T11:18:45;101029.44;;;3.88;81.90
69257;BME280;56376;53.356;-1.748;2023-03-04T11:21:17;101032.06;;;3.89;82.16
69257;BME280;56376;53.356;-1.748;2023-03-04T11:23:51;101035.50;;;3.88;81.63
69257;BME280;56376;53.356;-1.748;2023-03-04T11:26:22;101029.47;;;3.89;81.60
69257;BME280;56376;53.356;-1.748;2023-03-04T11:29:17;101027.78;;;3.92;82.38
69257;BME280;56376;53.356;-1.748;2023-03-04T11:32:21;101026.13;;;3.97;83.24
69257;BME280;56376;53.356;-1.748;2023-03-04T11:37:33;101014.19;;;4.05;82.28
69257;BME280;56376;53.356;-1.748;2023-03-04T11:40:10;101006.47;;;4.08;82.56
69257;BME280;56376;53.356;-1.748;2023-03-04T11:45:11;101005.66;;;4.12;81.54
69257;BME280;56376;53.356;-1.748;2023-03-04T11:47:43;100987.59;;;4.15;80.59
69257;BME280;56376;53.356;-1.748;2023-03-04T11:52:53;100979.78;;;4.10;81.80
69257;BME280;56376;53.356;-1.748;2023-03-04T11:58:15;100979.84;;;4.15;82.37
69257;BME280;56376;53.356;-1.748;2023-03-04T12:06:28;100981.69;;;4.24;84.25
69257;BME280;56376;53.356;-1.748;2023-03-04T12:11:46;100984.31;;;4.27;82.25
69257;BME280;56376;53.356;-1.748;2023-03-04T12:14:26;100974.75;;;4.23;82.68
69257;BME280;56376;53.356;-1.748;2023-03-04T12:17:14;100977.38;;;4.24;82.77
69257;BME280;56376;53.356;-1.748;2023-03-04T12:20:09;100974.81;;;4.27;83.88
69257;BME280;56376;53.356;-1.748;2023-03-04T12:22:51;100963.66;;;4.30;84.11
69257;BME280;56376;53.356;-1.748;2023-03-04T12:28:11;100962.91;;;4.39;82.41
69257;BME280;56376;53.356;-1.748;2023-03-04T12:38:29;100953.44;;;4.42;81.08
69257;BME280;56376;53.356;-1.748;2023-03-04T12:43:36;100946.53;;;4.41;80.07
69257;BME280;56376;53.356;-1.748;2023-03-04T12:54:32;100925.94;;;4.49;80.54
69257;BME280;56376;53.356;-1.748;2023-03-04T12:57:17;100929.41;;;4.52;80.44
69257;BME280;56376;53.356;-1.748;2023-03-04T13:00:22;100934.59;;;4.52;80.54
69257;BME280;56376;53.356;-1.748;2023-03-04T13:03:05;100924.19;;;4.51;80.53
69257;BME280;56376;53.356;-1.748;2023-03-04T13:14:07;100901.00;;;4.57;80.53
69257;BME280;56376;53.356;-1.748;2023-03-04T13:16:55;100898.44;;;4.59;80.82
69257;BME280;56376;53.356;-1.748;2023-03-04T13:24:57;100899.34;;;4.65;80.14
69257;BME280;56376;53.356;-1.748;2023-03-04T13:38:23;100881.28;;;4.71;78.88
69257;BME280;56376;53.356;-1.748;2023-03-04T13:41:22;100879.53;;;4.70;79.55
69257;BME280;56376;53.356;-1.748;2023-03-04T13:43:53;100881.28;;;4.73;80.02
69257;BME280;56376;53.356;-1.748;2023-03-04T13:51:22;100875.31;;;4.80;80.47
69257;BME280;56376;53.356;-1.748;2023-03-04T13:53:54;100871.91;;;4.84;79.96
69257;BME280;56376;53.356;-1.748;2023-03-04T13:56:24;100868.47;;;4.85;79.25
69257;BME280;56376;53.356;-1.748;2023-03-04T13:59:01;100860.66;;;4.84;79.45
69257;BME280;56376;53.356;-1.748;2023-03-04T14:01:30;100865.91;;;4.87;79.73
69257;BME280;56376;53.356;-1.748;2023-03-04T14:04:00;100863.31;;;4.87;78.38
69257;BME280;56376;53.356;-1.748;2023-03-04T14:06:28;100858.97;;;4.86;78.56
69257;BME280;56376;53.356;-1.748;2023-03-04T14:08:54;100857.22;;;4.83;78.14
69257;BME280;56376;53.356;-1.748;2023-03-04T14:11:47;100855.50;;;4.84;78.17
69257;BME280;56376;53.356;-1.748;2023-03-04T14:14:16;100843.41;;;4.83;78.30
69257;BME280;56376;53.356;-1.748;2023-03-04T14:17:00;100846.91;;;4.88;78.02
69257;BME280;56376;53.356;-1.748;2023-03-04T14:22:00;100828.81;;;4.92;77.49
69257;BME280;56376;53.356;-1.748;2023-03-04T14:24:26;100828.00;;;4.98;77.71
69257;BME280;56376;53.356;-1.748;2023-03-04T14:27:21;100825.44;;;4.99;78.03
69257;BME280;56376;53.356;-1.748;2023-03-04T14:29:57;100821.13;;;5.03;77.92
69257;BME280;56376;53.356;-1.748;2023-03-04T14:32:24;100815.13;;;5.07;78.27